Time;durP1;ratioP1;P1;durP2;ratioP2;P2;SDS_P1;SDS_P2;PMS_P1;PMS_P2;Temp;Humidity;BMP_temperature;BMP_pressure;BME280_temperature;BME280_humidity;BME280_pressure;Samples;Min_cycle;Max_cycle;Signal;HPM_P1;HPM_P2
2023/04/20 00:01:15;;;;;;;1999.90;538.17;;;7.10;99.90;;;;;;5102459;28;20293;-52
2023/04/20 00:03:43;;;;;;;1999.90;576.13;;;6.90;99.90;;;;;;5111649;28;20314;-52
2023/04/20 00:06:12;;;;;;;1999.90;580.53;;;6.80;99.90;;;;;;5111420;28;20234;-52
2023/04/20 00:08:40;;;;;;;1231.23;263.20;;;6.60;99.90;;;;;;5109649;28;20340;-51
2023/04/20 00:11:08;;;;;;;1387.63;216.63;;;6.60;99.90;;;;;;5102621;28;20310;-52
2023/04/20 00:13:36;;;;;;;1999.90;763.40;;;6.50;99.90;;;;;;5106809;28;20264;-52
2023/04/20 00:16:06;;;;;;;459.90;139.73;;;6.50;99.90;;;;;;5111061;27;20784;-52
2023/04/20 00:18:34;;;;;;;1999.90;601.87;;;6.40;99.90;;;;;;5111027;28;20736;-52
2023/04/20 00:21:02;;;;;;;850.23;143.50;;;6.40;99.90;;;;;;5110946;28;20203;-51
2023/04/20 00:23:30;;;;;;;1135.60;233.80;;;6.30;99.90;;;;;;5107083;28;20933;-50
2023/04/20 00:25:58;;;;;;;1139.27;242.40;;;6.30;99.90;;;;;;5089182;28;20255;-52
2023/04/20 00:28:26;;;;;;;195.83;62.30;;;6.40;99.90;;;;;;5090351;28;20634;-51
2023/04/20 00:30:54;;;;;;;1999.90;697.03;;;6.40;99.90;;;;;;5093021;28;20234;-52
2023/04/20 00:33:24;;;;;;;1999.90;544.60;;;6.50;99.90;;;;;;5091187;28;20230;-50
2023/04/20 00:35:52;;;;;;;885.10;226.20;;;6.40;99.90;;;;;;5094576;28;20210;-52
2023/04/20 00:38:20;;;;;;;595.03;184.20;;;6.40;99.90;;;;;;5102103;28;20232;-52
2023/04/20 00:40:52;;;;;;;854.83;191.83;;;6.30;99.90;;;;;;5093040;28;20295;-52
2023/04/20 00:43:20;;;;;;;127.47;47.47;;;6.30;99.90;;;;;;5085262;28;20697;-52
2023/04/20 00:45:50;;;;;;;508.93;143.53;;;6.30;99.90;;;;;;5090184;28;20620;-51
2023/04/20 00:48:19;;;;;;;1761.97;326.57;;;6.30;99.90;;;;;;5082687;28;20669;-52
2023/04/20 00:50:49;;;;;;;101.90;77.00;;;6.30;99.90;;;;;;5090031;28;20706;-52
2023/04/20 00:53:19;;;;;;;92.27;62.40;;;6.30;99.90;;;;;;5089185;28;20235;-52
2023/04/20 00:55:47;;;;;;;356.93;115.47;;;6.30;99.90;;;;;;5076122;28;20232;-51
2023/04/20 00:58:15;;;;;;;393.07;121.63;;;6.30;99.90;;;;;;5090001;28;20824;-52
2023/04/20 01:00:43;;;;;;;299.93;104.87;;;6.20;99.90;;;;;;5089631;28;20290;-52
2023/04/20 01:03:11;;;;;;;673.23;145.80;;;6.20;99.90;;;;;;5089545;28;20247;-52
2023/04/20 01:05:40;;;;;;;412.17;120.40;;;6.20;99.90;;;;;;5089768;28;20281;-52
2023/04/20 01:08:09;;;;;;;1309.60;248.53;;;6.20;99.90;;;;;;5089575;28;20610;-52
2023/04/20 01:10:37;;;;;;;1003.87;215.07;;;6.10;99.90;;;;;;5089531;28;20222;-51
2023/04/20 01:13:05;;;;;;;1988.20;439.07;;;6.10;99.90;;;;;;5089451;28;20318;-51
2023/04/20 01:15:34;;;;;;;1999.90;365.33;;;6.20;99.90;;;;;;5089138;28;20305;-51
2023/04/20 01:18:02;;;;;;;1999.90;703.77;;;6.10;99.90;;;;;;5089566;28;20214;-51
2023/04/20 01:20:32;;;;;;;674.37;163.13;;;6.10;99.90;;;;;;5089244;28;20216;-52
2023/04/20 01:23:01;;;;;;;1718.20;344.67;;;6.10;99.90;;;;;;5075223;28;20283;-52
2023/04/20 01:25:29;;;;;;;1447.60;270.13;;;6.10;99.90;;;;;;5089264;28;20320;-52
2023/04/20 01:27:57;;;;;;;525.97;116.27;;;6.10;99.90;;;;;;5088683;28;20701;-52
2023/04/20 01:30:25;;;;;;;1999.90;634.97;;;6.10;99.90;;;;;;5088264;28;20202;-52
2023/04/20 01:32:53;;;;;;;150.13;75.67;;;6.10;99.90;;;;;;5088289;28;20523;-51
2023/04/20 01:35:21;;;;;;;1121.67;237.43;;;6.10;99.90;;;;;;5088796;28;20296;-52
2023/04/20 01:37:49;;;;;;;1999.90;367.80;;;6.20;99.90;;;;;;5088542;28;20249;-52
2023/04/20 01:40:18;;;;;;;248.27;109.13;;;6.10;99.90;;;;;;5084088;28;20300;-52
2023/04/20 01:42:46;;;;;;;544.10;162.10;;;6.10;99.90;;;;;;5079654;28;20287;-52
2023/04/20 01:45:15;;;;;;;394.87;135.07;;;6.10;99.90;;;;;;5088343;28;20253;-51
2023/04/20 01:47:43;;;;;;;1362.60;221.77;;;6.10;99.90;;;;;;5088869;28;20244;-52
2023/04/20 01:50:11;;;;;;;1903.53;380.00;;;6.00;99.90;;;;;;5088975;28;20268;-51
2023/04/20 01:52:39;;;;;;;754.30;135.33;;;6.10;99.90;;;;;;5088620;28;20638;-51
2023/04/20 01:55:08;;;;;;;237.13;89.23;;;6.00;99.90;;;;;;5088422;28;20263;-52
2023/04/20 01:57:38;;;;;;;153.13;68.83;;;6.00;99.90;;;;;;5088254;28;20222;-52
2023/04/20 02:00:08;;;;;;;1257.40;204.00;;;6.00;99.90;;;;;;5088631;28;20298;-51
2023/04/20 02:02:36;;;;;;;533.90;95.27;;;6.10;99.90;;;;;;5088717;28;20212;-51
2023/04/20 02:05:05;;;;;;;77.60;47.57;;;6.10;99.90;;;;;;5088556;28;20717;-51
2023/04/20 02:07:33;;;;;;;215.03;89.40;;;6.10;99.90;;;;;;5087705;28;20235;-51
2023/04/20 02:10:01;;;;;;;77.00;39.63;;;6.10;99.90;;;;;;5088560;28;20631;-52
2023/04/20 02:12:29;;;;;;;369.83;83.80;;;6.00;99.90;;;;;;5088348;28;20207;-52
2023/04/20 02:14:59;;;;;;;59.97;53.67;;;6.00;99.90;;;;;;5088409;28;20781;-51
2023/04/20 02:17:27;;;;;;;69.60;46.33;;;5.90;99.90;;;;;;5088422;28;20877;-52
2023/04/20 02:19:55;;;;;;;415.20;95.40;;;5.90;99.90;;;;;;5088206;28;20203;-52
2023/04/20 02:22:22;;;;;;;399.93;138.97;;;5.80;99.90;;;;;;5088700;28;20576;-52
2023/04/20 02:24:50;;;;;;;73.23;40.07;;;5.80;99.90;;;;;;5088336;28;20734;-52
2023/04/20 02:27:18;;;;;;;346.43;84.63;;;5.80;99.90;;;;;;5088387;28;20237;-51
2023/04/20 02:29:46;;;;;;;417.03;108.93;;;5.80;99.90;;;;;;5088266;28;20681;-52
2023/04/20 02:32:16;;;;;;;79.07;41.33;;;5.90;99.90;;;;;;5088502;28;20245;-51
2023/04/20 02:34:44;;;;;;;205.87;83.70;;;5.80;99.90;;;;;;5086752;28;20760;-51
2023/04/20 02:37:12;;;;;;;46.57;32.07;;;5.80;99.90;;;;;;5086926;28;20269;-51
2023/04/20 02:39:40;;;;;;;112.33;63.67;;;5.80;99.90;;;;;;5085182;28;20246;-52
2023/04/20 02:42:08;;;;;;;46.70;38.90;;;5.90;99.90;;;;;;5086255;28;20293;-51
2023/04/20 02:44:36;;;;;;;99.37;56.43;;;5.90;99.90;;;;;;5087837;28;20232;-52
2023/04/20 02:47:05;;;;;;;64.37;45.43;;;5.90;99.90;;;;;;5086843;28;20293;-53
2023/04/20 02:49:35;;;;;;;46.10;30.20;;;5.90;99.90;;;;;;5091879;28;20208;-51
2023/04/20 02:52:03;;;;;;;118.07;64.20;;;6.00;99.90;;;;;;5080877;28;20239;-50
2023/04/20 02:54:30;;;;;;;67.33;46.70;;;5.90;99.90;;;;;;5081555;28;20722;-51
2023/04/20 02:56:58;;;;;;;115.00;60.23;;;5.90;99.90;;;;;;5087113;28;20269;-51
2023/04/20 02:59:26;;;;;;;310.43;76.73;;;5.90;99.90;;;;;;5087636;28;20735;-52
2023/04/20 03:01:54;;;;;;;556.13;132.60;;;5.90;99.90;;;;;;5087884;28;20329;-52
2023/04/20 03:04:24;;;;;;;51.80;39.00;;;5.90;99.90;;;;;;5084482;28;20223;-52
2023/04/20 03:06:54;;;;;;;54.20;37.87;;;5.90;99.90;;;;;;5078074;28;20261;-51
2023/04/20 03:09:22;;;;;;;1347.70;264.13;;;5.90;99.90;;;;;;5087880;28;20204;-51
2023/04/20 03:11:50;;;;;;;131.10;53.97;;;5.90;99.90;;;;;;5088167;28;20235;-51
2023/04/20 03:14:18;;;;;;;201.57;75.57;;;6.00;99.90;;;;;;5087402;28;20307;-51
2023/04/20 03:16:46;;;;;;;63.83;40.83;;;6.00;99.90;;;;;;5090919;28;20307;-51
2023/04/20 03:19:15;;;;;;;135.10;51.13;;;6.00;99.90;;;;;;5091977;28;20208;-52
2023/04/20 03:21:45;;;;;;;70.53;48.00;;;5.90;99.90;;;;;;5089409;28;20218;-52
2023/04/20 03:24:15;;;;;;;101.83;58.50;;;5.90;99.90;;;;;;5087942;28;20728;-52
2023/04/20 03:26:43;;;;;;;172.30;89.63;;;5.80;99.90;;;;;;5105637;28;20314;-52
2023/04/20 03:29:11;;;;;;;940.30;177.17;;;5.80;99.90;;;;;;5112041;28;20290;-51
2023/04/20 03:31:39;;;;;;;944.73;152.23;;;5.80;99.90;;;;;;5111850;28;20289;-52
2023/04/20 03:34:07;;;;;;;456.20;93.50;;;5.80;99.90;;;;;;5111773;28;20661;-52
2023/04/20 03:36:35;;;;;;;57.27;38.33;;;5.80;99.90;;;;;;5111702;28;20205;-52
2023/04/20 03:39:04;;;;;;;98.97;56.37;;;5.70;99.90;;;;;;5096100;28;20204;-52
2023/04/20 03:41:33;;;;;;;68.73;45.63;;;5.70;99.90;;;;;;5094203;28;20303;-51
2023/04/20 03:44:01;;;;;;;621.40;136.90;;;5.70;99.90;;;;;;5092665;28;20251;-52
2023/04/20 03:46:29;;;;;;;1106.97;189.73;;;5.70;99.90;;;;;;5092364;28;20768;-51
2023/04/20 03:48:57;;;;;;;1664.13;252.50;;;5.70;99.90;;;;;;5092978;28;20365;-52
2023/04/20 03:51:26;;;;;;;31.50;17.20;;;5.60;99.90;;;;;;5089860;28;20200;-51
2023/04/20 03:53:54;;;;;;;36.27;24.80;;;5.60;99.90;;;;;;5091158;28;20311;-52
2023/04/20 03:56:22;;;;;;;149.40;66.37;;;5.50;99.90;;;;;;5111120;28;20214;-52
2023/04/20 03:58:52;;;;;;;73.53;40.03;;;5.60;99.90;;;;;;5105967;27;20290;-52
2023/04/20 04:01:20;;;;;;;62.70;41.43;;;5.60;99.90;;;;;;5100764;28;20301;-51
2023/04/20 04:03:47;;;;;;;1999.90;398.33;;;5.60;99.90;;;;;;5111219;28;20298;-52
2023/04/20 04:06:16;;;;;;;71.43;48.20;;;5.70;99.90;;;;;;5110893;28;20846;-52
2023/04/20 04:08:44;;;;;;;249.60;81.97;;;5.60;99.90;;;;;;5111119;28;20324;-51
2023/04/20 04:11:12;;;;;;;84.03;49.73;;;5.60;99.90;;;;;;5111023;28;20207;-52
2023/04/20 04:13:40;;;;;;;130.43;55.70;;;5.60;99.90;;;;;;5110924;28;20324;-51
2023/04/20 04:16:09;;;;;;;357.13;96.63;;;5.50;99.90;;;;;;5110655;28;20260;-52
2023/04/20 04:18:37;;;;;;;59.87;42.07;;;5.50;99.90;;;;;;5111175;28;20295;-51
2023/04/20 04:21:09;;;;;;;199.03;75.87;;;5.50;99.90;;;;;;5110982;28;20273;-51
2023/04/20 04:23:37;;;;;;;978.13;188.83;;;5.50;99.90;;;;;;5111047;28;20258;-51
2023/04/20 04:26:05;;;;;;;208.93;75.90;;;5.50;99.90;;;;;;5110563;28;20207;-51
2023/04/20 04:28:33;;;;;;;134.03;58.27;;;5.50;99.90;;;;;;5110614;28;20282;-51
2023/04/20 04:31:04;;;;;;;162.30;59.47;;;5.50;99.90;;;;;;5110889;28;20308;-51
2023/04/20 04:33:34;;;;;;;57.93;45.00;;;5.60;99.90;;;;;;5107658;28;20229;-51
2023/04/20 04:36:02;;;;;;;157.27;46.43;;;5.60;99.90;;;;;;5097345;28;20318;-51
2023/04/20 04:38:33;;;;;;;89.23;42.20;;;5.50;99.90;;;;;;5106295;28;20215;-52
2023/04/20 04:41:01;;;;;;;264.17;92.87;;;5.50;99.90;;;;;;5108481;28;20206;-51
2023/04/20 04:43:29;;;;;;;40.10;26.53;;;5.50;99.90;;;;;;5103858;28;20810;-50
2023/04/20 04:45:58;;;;;;;73.97;49.47;;;5.50;99.90;;;;;;5095645;28;20689;-51
2023/04/20 04:48:26;;;;;;;31.07;24.37;;;5.50;99.90;;;;;;5104139;28;20216;-52
2023/04/20 04:50:56;;;;;;;1999.90;535.47;;;5.60;99.90;;;;;;5096185;28;20207;-51
2023/04/20 04:53:24;;;;;;;605.83;129.63;;;5.70;99.90;;;;;;5101763;28;20288;-52
2023/04/20 04:55:52;;;;;;;1583.60;227.80;;;5.60;99.90;;;;;;5108992;28;20253;-51
2023/04/20 04:58:20;;;;;;;481.50;109.73;;;5.60;99.90;;;;;;5106355;28;20219;-51
2023/04/20 05:00:48;;;;;;;76.97;54.00;;;5.50;99.90;;;;;;5109566;28;20743;-52
2023/04/20 05:03:16;;;;;;;130.60;54.30;;;5.50;99.90;;;;;;5087123;28;20294;-51
2023/04/20 05:05:44;;;;;;;1999.90;452.37;;;5.50;99.90;;;;;;5104168;28;20211;-52
2023/04/20 05:08:13;;;;;;;1617.70;246.97;;;5.60;99.90;;;;;;5110121;28;20318;-52
2023/04/20 05:10:41;;;;;;;1818.93;258.03;;;5.60;99.90;;;;;;5109933;28;20304;-51
2023/04/20 05:13:09;;;;;;;70.90;35.60;;;5.50;99.90;;;;;;5103272;28;20659;-52
2023/04/20 05:15:37;;;;;;;1999.90;454.80;;;5.50;99.90;;;;;;5102148;28;20234;-51
2023/04/20 05:18:05;;;;;;;444.60;97.87;;;5.60;99.90;;;;;;5109766;28;20239;-51
2023/04/20 05:20:34;;;;;;;1999.90;626.60;;;5.60;99.90;;;;;;5098584;28;20233;-52
2023/04/20 05:23:03;;;;;;;434.27;98.27;;;5.70;99.90;;;;;;5107101;28;20252;-51
2023/04/20 05:25:32;;;;;;;528.63;100.90;;;5.70;99.90;;;;;;5109395;28;20222;-52
2023/04/20 05:28:00;;;;;;;286.03;47.07;;;5.60;99.90;;;;;;5109689;28;20304;-52
2023/04/20 05:30:28;;;;;;;319.50;61.50;;;5.60;99.90;;;;;;5109893;28;20227;-52
2023/04/20 05:32:56;;;;;;;113.53;41.73;;;5.80;99.90;;;;;;5109522;28;20245;-51
2023/04/20 05:35:24;;;;;;;1329.97;291.77;;;5.70;99.90;;;;;;5103824;28;20311;-51
2023/04/20 05:37:52;;;;;;;363.27;116.47;;;5.80;99.90;;;;;;5108731;28;20694;-51
2023/04/20 05:40:20;;;;;;;1382.40;293.73;;;5.80;99.90;;;;;;5098036;28;20219;-52
2023/04/20 05:42:49;;;;;;;1095.33;199.17;;;5.80;99.90;;;;;;5104909;28;20294;-51
2023/04/20 05:45:17;;;;;;;774.93;161.47;;;5.70;99.90;;;;;;5099582;28;20307;-51
2023/04/20 05:47:53;;;;;;;909.87;212.23;;;5.80;99.90;;;;;;5100140;28;20238;-51
2023/04/20 05:50:21;;;;;;;1999.90;433.50;;;5.70;99.90;;;;;;5104109;28;20203;-51
2023/04/20 05:52:49;;;;;;;1999.90;396.27;;;5.80;99.90;;;;;;5107283;28;20209;-51
2023/04/20 05:55:18;;;;;;;1374.10;196.57;;;5.70;99.90;;;;;;5109363;28;20239;-50
2023/04/20 05:57:51;;;;;;;1999.90;883.97;;;5.80;99.90;;;;;;5109143;28;20204;-52
2023/04/20 06:00:20;;;;;;;1999.90;414.23;;;5.90;99.90;;;;;;5105465;28;20216;-51
2023/04/20 06:02:51;;;;;;;1999.90;598.87;;;5.90;99.90;;;;;;5109224;28;20222;-51
2023/04/20 06:05:19;;;;;;;1532.50;271.93;;;5.80;99.90;;;;;;5109010;28;20872;-52
2023/04/20 06:07:47;;;;;;;560.27;162.70;;;5.60;99.90;;;;;;5109158;28;20203;-52
2023/04/20 06:10:15;;;;;;;1999.90;638.80;;;5.80;99.90;;;;;;5108849;28;20206;-52
2023/04/20 06:12:43;;;;;;;1999.90;444.60;;;5.70;99.90;;;;;;5100412;28;20617;-52
2023/04/20 06:15:13;;;;;;;1999.90;353.37;;;5.80;99.90;;;;;;5104663;28;20224;-52
2023/04/20 06:17:41;;;;;;;1853.40;361.67;;;5.70;99.90;;;;;;5108791;28;20302;-51
2023/04/20 06:20:10;;;;;;;1242.10;214.30;;;5.80;99.90;;;;;;5108490;28;20706;-52
2023/04/20 06:22:43;;;;;;;1999.90;625.17;;;5.80;99.90;;;;;;5095747;28;20628;-52
2023/04/20 06:25:11;;;;;;;894.70;229.10;;;5.90;99.90;;;;;;5097420;28;20301;-52
2023/04/20 06:27:39;;;;;;;1999.90;400.60;;;5.80;99.90;;;;;;5080930;28;20205;-51
2023/04/20 06:30:08;;;;;;;240.70;56.63;;;5.70;99.90;;;;;;5108673;28;20293;-52
2023/04/20 06:32:38;;;;;;;1999.90;804.30;;;5.70;99.90;;;;;;5108605;28;20199;-52
2023/04/20 06:35:07;;;;;;;1999.90;673.30;;;5.90;99.90;;;;;;5091867;28;20249;-52
2023/04/20 06:37:35;;;;;;;235.60;66.63;;;5.90;99.90;;;;;;5101627;28;20226;-52
2023/04/20 06:40:06;;;;;;;199.47;62.10;;;5.90;99.90;;;;;;5099084;28;20615;-52
2023/04/20 06:42:35;;;;;;;1999.90;570.63;;;5.90;99.90;;;;;;5086804;28;20239;-52
2023/04/20 06:45:04;;;;;;;300.77;88.63;;;5.80;99.90;;;;;;5084980;28;20643;-52
2023/04/20 06:47:32;;;;;;;191.97;74.93;;;5.80;99.90;;;;;;5078185;28;20294;-52
2023/04/20 06:50:06;;;;;;;1999.90;455.20;;;5.80;99.90;;;;;;5092248;28;20240;-51
2023/04/20 06:52:34;;;;;;;1501.47;305.83;;;5.90;99.90;;;;;;5106816;28;20205;-52
2023/04/20 06:55:02;;;;;;;1936.40;350.57;;;5.90;99.90;;;;;;5102953;28;20228;-51
2023/04/20 06:57:30;;;;;;;1999.90;592.87;;;5.90;99.90;;;;;;5106365;28;20237;-51
2023/04/20 06:59:58;;;;;;;351.37;98.70;;;6.00;99.90;;;;;;5105717;28;20295;-52
2023/04/20 07:02:27;;;;;;;1999.90;839.20;;;5.90;99.90;;;;;;5107268;28;20266;-52
2023/04/20 07:05:02;;;;;;;531.40;88.53;;;6.10;99.90;;;;;;5095978;28;20277;-51
2023/04/20 07:07:30;;;;;;;236.40;98.97;;;6.20;99.90;;;;;;5091429;28;20258;-51
2023/04/20 07:09:58;;;;;;;1819.20;318.87;;;6.30;99.90;;;;;;5111110;28;20238;-52
2023/04/20 07:12:26;;;;;;;1999.90;740.47;;;6.50;99.90;;;;;;5109481;28;20247;-51
2023/04/20 07:14:54;;;;;;;1972.63;335.90;;;6.50;99.90;;;;;;5100566;28;20717;-51
2023/04/20 07:17:22;;;;;;;1999.90;614.57;;;6.40;99.90;;;;;;5111997;28;20227;-51
2023/04/20 07:19:51;;;;;;;1967.10;391.70;;;6.50;99.90;;;;;;5102989;28;20265;-51
2023/04/20 07:22:20;;;;;;;1899.47;271.03;;;6.60;99.90;;;;;;5112172;28;20217;-52
2023/04/20 07:24:48;;;;;;;1999.90;496.10;;;6.70;99.90;;;;;;5111927;28;20310;-52
2023/04/20 07:27:16;;;;;;;56.40;29.33;;;6.80;99.90;;;;;;5111742;28;20673;-51
2023/04/20 07:29:44;;;;;;;517.43;109.50;;;6.90;99.90;;;;;;5100561;28;20214;-50
2023/04/20 07:32:13;;;;;;;1999.90;346.03;;;7.00;99.90;;;;;;5097504;28;20212;-52
2023/04/20 07:34:41;;;;;;;1364.93;238.43;;;7.10;99.90;;;;;;5111572;28;20310;-51
2023/04/20 07:37:09;;;;;;;1395.70;337.47;;;7.00;99.90;;;;;;5100030;28;20247;-51
2023/04/20 07:39:38;;;;;;;1999.90;722.40;;;7.00;99.90;;;;;;5111872;28;20239;-51
2023/04/20 07:42:06;;;;;;;1999.90;779.67;;;7.10;99.90;;;;;;5111504;28;20246;-51
2023/04/20 07:44:35;;;;;;;1999.90;717.07;;;7.00;99.90;;;;;;5111211;28;20310;-50
2023/04/20 07:47:03;;;;;;;1999.90;427.53;;;6.90;99.90;;;;;;5111389;28;20291;-51
2023/04/20 07:49:31;;;;;;;1999.90;582.20;;;7.00;99.90;;;;;;5111718;28;20204;-52
2023/04/20 07:51:59;;;;;;;1999.90;790.73;;;7.10;99.90;;;;;;5111079;27;20299;-51
2023/04/20 07:54:44;;;;;;;1728.80;325.23;;;7.40;99.90;;;;;;5107395;28;20650;-51
2023/04/20 07:57:12;;;;;;;1999.90;399.03;;;7.30;99.90;;;;;;5111180;28;20219;-52
2023/04/20 07:59:40;;;;;;;971.63;192.80;;;7.30;99.90;;;;;;5096620;28;20314;-51
2023/04/20 08:02:08;;;;;;;1999.90;484.53;;;7.40;99.90;;;;;;5110934;28;20283;-51
2023/04/20 08:04:37;;;;;;;1975.70;361.23;;;7.40;99.90;;;;;;5111194;28;20233;-51
2023/04/20 08:07:05;;;;;;;1999.90;507.03;;;7.40;99.90;;;;;;5111405;28;20247;-52
2023/04/20 08:09:33;;;;;;;1999.90;408.03;;;7.30;99.90;;;;;;5110929;28;20257;-52
2023/04/20 08:12:03;;;;;;;1999.90;683.70;;;7.60;99.90;;;;;;5097362;28;20209;-51
2023/04/20 08:14:32;;;;;;;1999.90;914.30;;;7.90;99.90;;;;;;5096700;28;20223;-52
2023/04/20 08:17:00;;;;;;;1999.90;827.07;;;7.90;99.90;;;;;;5104118;28;20251;-52
2023/04/20 08:19:28;;;;;;;1999.90;757.60;;;8.20;99.90;;;;;;5099757;28;20214;-52
2023/04/20 08:21:56;;;;;;;1999.90;800.03;;;8.20;99.90;;;;;;5107747;28;20200;-52
2023/04/20 08:24:24;;;;;;;1999.90;990.73;;;8.00;99.90;;;;;;5110401;28;20281;-51
2023/04/20 08:26:52;;;;;;;1999.90;649.13;;;8.20;99.90;;;;;;5108915;28;20204;-51
2023/04/20 08:29:21;;;;;;;1999.90;415.70;;;8.30;99.90;;;;;;5110275;28;20242;-51
2023/04/20 08:31:50;;;;;;;1999.90;803.03;;;8.30;99.90;;;;;;5109932;28;20276;-52
2023/04/20 08:34:19;;;;;;;1999.90;789.47;;;8.60;99.90;;;;;;5092658;28;20311;-51
2023/04/20 08:36:47;;;;;;;1999.90;648.87;;;8.80;99.90;;;;;;5103952;28;20234;-51
2023/04/20 08:39:22;;;;;;;1999.90;749.40;;;9.00;99.90;;;;;;5110163;28;20290;-51
2023/04/20 08:41:52;;;;;;;1999.90;999.90;;;8.80;99.90;;;;;;5110281;28;20294;-52
2023/04/20 08:44:22;;;;;;;1999.90;549.27;;;8.80;99.90;;;;;;5087839;28;20224;-52
2023/04/20 08:46:51;;;;;;;1999.90;999.90;;;8.60;99.90;;;;;;5093396;28;20257;-51
2023/04/20 08:49:19;;;;;;;1999.90;691.53;;;8.90;99.90;;;;;;5097705;28;20671;-51
2023/04/20 08:51:48;;;;;;;1999.90;608.67;;;8.60;99.90;;;;;;5098249;28;20234;-52
2023/04/20 08:54:16;;;;;;;1999.90;485.40;;;8.60;99.90;;;;;;5091193;28;20236;-52
2023/04/20 08:56:46;;;;;;;1999.90;891.37;;;8.70;99.90;;;;;;5099005;28;20207;-52
2023/04/20 08:59:15;;;;;;;1999.90;349.70;;;8.90;99.90;;;;;;5089895;28;20286;-51
2023/04/20 09:01:45;;;;;;;724.43;169.90;;;9.10;99.90;;;;;;5097827;28;20694;-51
2023/04/20 09:04:21;;;;;;;1999.90;936.30;;;9.20;99.90;;;;;;5090392;28;20232;-52
2023/04/20 09:06:51;;;;;;;1999.90;728.57;;;9.40;99.90;;;;;;5096270;28;20196;-53
2023/04/20 09:09:21;;;;;;;1999.90;691.93;;;9.60;99.90;;;;;;5096256;28;20214;-52
2023/04/20 09:12:01;;;;;;;1999.90;720.30;;;9.90;99.90;;;;;;5089917;28;20228;-51
2023/04/20 09:14:29;;;;;;;1999.90;999.90;;;9.70;99.90;;;;;;5094517;28;20223;-51
2023/04/20 09:17:00;;;;;;;1835.47;382.20;;;9.70;99.90;;;;;;5094416;28;20777;-52
2023/04/20 09:19:29;;;;;;;1999.90;923.83;;;9.30;99.90;;;;;;5089215;28;20248;-51
2023/04/20 09:22:00;;;;;;;1999.90;984.97;;;9.10;99.90;;;;;;5090991;28;20291;-52
2023/04/20 09:24:32;;;;;;;1999.90;673.73;;;9.10;99.90;;;;;;5095779;28;20253;-52
2023/04/20 09:27:01;;;;;;;1999.90;921.43;;;9.00;99.90;;;;;;5093272;28;20216;-51
2023/04/20 09:29:29;;;;;;;1999.90;966.17;;;9.10;99.90;;;;;;5094747;28;20238;-51
2023/04/20 09:31:59;;;;;;;1999.90;915.40;;;9.20;99.90;;;;;;5091987;28;20782;-51
2023/04/20 09:34:27;;;;;;;1425.23;275.47;;;9.20;99.90;;;;;;5085381;28;20227;-51
2023/04/20 09:36:56;;;;;;;992.90;208.67;;;9.00;99.90;;;;;;5092606;28;20287;-52
2023/04/20 09:39:25;;;;;;;1999.90;612.07;;;9.00;99.90;;;;;;5098398;28;20222;-53
2023/04/20 09:41:53;;;;;;;1999.90;639.47;;;8.90;99.90;;;;;;5092040;28;20789;-52
2023/04/20 09:44:21;;;;;;;1999.90;597.93;;;8.80;99.90;;;;;;5095979;28;20792;-52
2023/04/20 09:46:49;;;;;;;1999.90;472.50;;;8.80;99.90;;;;;;5090849;28;20242;-52
2023/04/20 09:49:20;;;;;;;1999.90;659.07;;;8.80;99.90;;;;;;5089867;28;20962;-52
2023/04/20 09:51:49;;;;;;;1999.90;506.23;;;8.60;99.90;;;;;;5098629;28;20268;-52
2023/04/20 09:54:17;;;;;;;1999.90;652.97;;;8.60;99.90;;;;;;5090669;28;20260;-52
2023/04/20 09:56:45;;;;;;;1999.90;939.00;;;8.40;99.90;;;;;;5109755;28;20249;-52
2023/04/20 09:59:14;;;;;;;1999.90;827.93;;;8.60;99.90;;;;;;5095820;28;21104;-52
2023/04/20 10:01:42;;;;;;;1999.90;791.80;;;9.00;99.90;;;;;;5109014;28;20651;-52
2023/04/20 10:04:12;;;;;;;1999.90;804.77;;;8.90;99.90;;;;;;5109247;28;20598;-51
2023/04/20 10:06:53;;;;;;;1999.90;681.03;;;9.00;99.90;;;;;;5095374;28;20207;-52
2023/04/20 10:09:23;;;;;;;1999.90;641.47;;;8.80;99.90;;;;;;5109517;28;20246;-52
2023/04/20 10:11:51;;;;;;;1796.60;374.00;;;8.80;99.90;;;;;;5095555;28;20199;-52
2023/04/20 10:14:23;;;;;;;1999.90;769.03;;;8.80;99.90;;;;;;5104591;28;20227;-52
2023/04/20 10:17:00;;;;;;;1999.90;783.43;;;8.90;99.90;;;;;;5106713;28;20302;-52
2023/04/20 10:19:38;;;;;;;1999.90;834.67;;;8.80;99.90;;;;;;5096742;28;20326;-52
2023/04/20 10:22:08;;;;;;;742.20;229.57;;;8.90;99.90;;;;;;5107933;28;20263;-51
2023/04/20 10:24:37;;;;;;;1999.90;987.47;;;9.00;99.90;;;;;;5103134;28;20264;-52
2023/04/20 10:27:16;;;;;;;1999.90;561.50;;;9.30;99.90;;;;;;5115345;27;20210;-52
2023/04/20 10:29:46;;;;;;;1999.90;999.90;;;9.50;99.90;;;;;;5115540;27;20202;-52
2023/04/20 10:32:22;;;;;;;1999.90;753.30;;;9.60;99.90;;;;;;5106452;27;20227;-52
2023/04/20 10:35:02;;;;;;;1999.90;741.17;;;9.50;99.90;;;;;;5115498;27;20733;-52
2023/04/20 10:37:31;;;;;;;1999.90;874.60;;;9.60;99.90;;;;;;5115609;28;20262;-51
2023/04/20 10:40:00;;;;;;;1999.90;780.40;;;9.60;99.90;;;;;;5115090;27;20290;-52
2023/04/20 10:42:29;;;;;;;1999.90;852.93;;;9.60;99.90;;;;;;5115325;27;20682;-51
2023/04/20 10:44:57;;;;;;;1999.90;616.03;;;9.60;99.90;;;;;;5111256;27;20282;-52
2023/04/20 10:47:29;;;;;;;1999.90;656.23;;;9.60;99.90;;;;;;5111557;27;20599;-52
2023/04/20 10:50:06;;;;;;;1999.90;884.63;;;9.60;99.90;;;;;;5105619;28;20223;-52
2023/04/20 10:52:37;;;;;;;473.03;175.43;;;9.80;99.90;;;;;;5115057;27;20194;-52
2023/04/20 10:55:07;;;;;;;1988.03;524.67;;;9.90;99.90;;;;;;5115168;27;20588;-52
2023/04/20 10:57:36;;;;;;;1999.90;739.70;;;9.90;99.90;;;;;;5115506;27;20221;-52
2023/04/20 11:00:15;;;;;;;1999.90;607.13;;;10.00;99.90;;;;;;5094471;28;20669;-52
2023/04/20 11:02:48;;;;;;;1999.90;999.90;;;10.00;99.90;;;;;;5089390;28;20208;-52
2023/04/20 11:05:18;;;;;;;1999.90;748.60;;;10.10;99.90;;;;;;5091016;28;20249;-52
2023/04/20 11:07:53;;;;;;;1668.03;395.63;;;10.00;99.90;;;;;;5102493;27;20216;-52
2023/04/20 11:10:23;;;;;;;1473.93;509.33;;;10.20;99.90;;;;;;5094148;28;20211;-53
2023/04/20 11:12:52;;;;;;;1999.90;679.40;;;10.10;99.90;;;;;;5103271;28;20200;-53
2023/04/20 11:15:30;;;;;;;1999.90;964.80;;;10.10;99.90;;;;;;5114327;28;20611;-52
2023/04/20 11:18:07;;;;;;;1999.90;915.67;;;10.10;99.90;;;;;;5114997;27;20271;-52
2023/04/20 11:20:35;;;;;;;1999.90;914.00;;;9.90;99.90;;;;;;5088622;28;20203;-52
2023/04/20 11:23:05;;;;;;;1999.90;792.90;;;9.90;99.90;;;;;;5114860;28;20205;-53
2023/04/20 11:25:34;;;;;;;1999.90;744.20;;;10.10;99.90;;;;;;5111041;27;20228;-52
2023/04/20 11:28:07;;;;;;;1999.90;829.13;;;10.30;99.90;;;;;;5106676;28;20704;-53
2023/04/20 11:30:40;;;;;;;1988.17;622.93;;;10.50;99.90;;;;;;5115233;27;20206;-51
2023/04/20 11:33:08;;;;;;;1999.90;995.70;;;10.40;99.90;;;;;;5115253;27;20211;-52
2023/04/20 11:35:37;;;;;;;1999.90;782.93;;;10.50;99.90;;;;;;5094239;27;20748;-52
2023/04/20 11:38:07;;;;;;;1999.90;756.93;;;10.60;99.90;;;;;;5097715;28;20253;-52
2023/04/20 11:40:35;;;;;;;1999.90;987.00;;;10.90;99.90;;;;;;5094470;28;20236;-52
2023/04/20 11:43:04;;;;;;;1999.90;700.43;;;10.90;99.90;;;;;;5104463;28;20265;-52
2023/04/20 11:45:33;;;;;;;1999.90;947.77;;;10.70;99.90;;;;;;5091934;28;20307;-52
2023/04/20 11:48:04;;;;;;;1999.90;992.60;;;10.70;99.90;;;;;;5104598;28;20207;-52
2023/04/20 11:50:32;;;;;;;1999.90;914.67;;;10.60;99.90;;;;;;5106018;28;20278;-52
2023/04/20 11:53:01;;;;;;;1999.90;875.97;;;10.70;99.90;;;;;;5103029;28;20204;-52
2023/04/20 11:55:30;;;;;;;1999.90;975.80;;;10.90;99.90;;;;;;5111203;28;20219;-52
2023/04/20 11:57:58;;;;;;;1411.37;500.90;;;11.00;99.90;;;;;;5111416;28;20235;-52
2023/04/20 12:00:26;;;;;;;1999.90;999.90;;;11.00;99.90;;;;;;5111125;28;20314;-53
2023/04/20 12:02:54;;;;;;;1999.90;999.90;;;11.10;99.90;;;;;;5111284;28;20257;-52
2023/04/20 12:05:23;;;;;;;1999.90;999.90;;;11.10;99.90;;;;;;5111032;28;20223;-53
2023/04/20 12:07:51;;;;;;;1999.90;999.90;;;11.20;99.90;;;;;;5108032;28;20294;-52
2023/04/20 12:10:19;;;;;;;1999.90;999.90;;;11.50;99.90;;;;;;5111184;28;20799;-53
2023/04/20 12:12:48;;;;;;;1999.90;941.03;;;11.60;99.90;;;;;;5111192;28;20235;-53
2023/04/20 12:15:17;;;;;;;1999.90;999.90;;;11.80;99.90;;;;;;5111043;28;20231;-53
2023/04/20 12:17:44;;;;;;;1999.90;999.90;;;11.90;99.90;;;;;;5110927;28;20303;-52
2023/04/20 12:20:13;;;;;;;1999.90;999.90;;;11.90;99.90;;;;;;5101350;28;20232;-53
2023/04/20 12:22:41;;;;;;;1999.90;967.50;;;12.00;99.90;;;;;;5108342;28;20203;-52